sensor_id;sensor_type;location;lat;lon;timestamp;P1;durP1;ratioP1;P2;durP2;ratioP2
37593;SDS011;23441;50.856;6.076;2023-05-07T00:01:36;9.10;;;6.20;;
37593;SDS011;23441;50.856;6.076;2023-05-07T00:04:02;9.82;;;6.03;;
37593;SDS011;23441;50.856;6.076;2023-05-07T00:06:28;7.82;;;5.63;;
37593;SDS011;23441;50.856;6.076;2023-05-07T00:08:55;9.77;;;6.40;;
37593;SDS011;23441;50.856;6.076;2023-05-07T00:11:21;7.40;;;5.18;;
37593;SDS011;23441;50.856;6.076;2023-05-07T00:13:47;10.10;;;5.97;;
37593;SDS011;23441;50.856;6.076;2023-05-07T00:16:13;8.43;;;5.43;;
37593;SDS011;23441;50.856;6.076;2023-05-07T00:18:39;10.35;;;6.10;;
37593;SDS011;23441;50.856;6.076;2023-05-07T00:21:05;5.97;;;5.10;;
37593;SDS011;23441;50.856;6.076;2023-05-07T00:23:30;6.95;;;5.20;;
37593;SDS011;23441;50.856;6.076;2023-05-07T00:25:56;8.48;;;5.10;;
37593;SDS011;23441;50.856;6.076;2023-05-07T00:28:21;7.95;;;5.00;;
37593;SDS011;23441;50.856;6.076;2023-05-07T00:30:47;6.90;;;5.28;;
37593;SDS011;23441;50.856;6.076;2023-05-07T00:33:13;8.70;;;5.32;;
37593;SDS011;23441;50.856;6.076;2023-05-07T00:35:38;5.55;;;4.82;;
37593;SDS011;23441;50.856;6.076;2023-05-07T00:38:04;7.75;;;5.13;;
37593;SDS011;23441;50.856;6.076;2023-05-07T00:40:29;8.52;;;4.97;;
37593;SDS011;23441;50.856;6.076;2023-05-07T00:42:55;6.72;;;4.70;;
37593;SDS011;23441;50.856;6.076;2023-05-07T00:45:23;5.57;;;4.88;;
37593;SDS011;23441;50.856;6.076;2023-05-07T00:47:57;11.57;;;6.63;;
37593;SDS011;23441;50.856;6.076;2023-05-07T00:50:25;6.45;;;4.90;;
37593;SDS011;23441;50.856;6.076;2023-05-07T00:52:54;5.85;;;4.20;;
37593;SDS011;23441;50.856;6.076;2023-05-07T00:55:21;9.55;;;5.10;;
37593;SDS011;23441;50.856;6.076;2023-05-07T00:57:48;8.02;;;4.85;;
37593;SDS011;23441;50.856;6.076;2023-05-07T01:00:15;7.75;;;5.00;;
37593;SDS011;23441;50.856;6.076;2023-05-07T01:02:42;6.07;;;4.63;;
37593;SDS011;23441;50.856;6.076;2023-05-07T01:05:09;6.22;;;4.85;;
37593;SDS011;23441;50.856;6.076;2023-05-07T01:07:37;7.93;;;5.05;;
37593;SDS011;23441;50.856;6.076;2023-05-07T01:10:05;5.03;;;4.25;;
37593;SDS011;23441;50.856;6.076;2023-05-07T01:12:32;6.00;;;4.57;;
37593;SDS011;23441;50.856;6.076;2023-05-07T01:14:59;5.82;;;4.60;;
37593;SDS011;23441;50.856;6.076;2023-05-07T01:17:25;5.55;;;5.05;;
37593;SDS011;23441;50.856;6.076;2023-05-07T01:19:51;7.95;;;5.13;;
37593;SDS011;23441;50.856;6.076;2023-05-07T01:22:24;8.48;;;5.63;;
37593;SDS011;23441;50.856;6.076;2023-05-07T01:24:54;6.07;;;5.53;;
37593;SDS011;23441;50.856;6.076;2023-05-07T01:27:21;7.35;;;5.32;;
37593;SDS011;23441;50.856;6.076;2023-05-07T01:29:46;8.25;;;5.45;;
37593;SDS011;23441;50.856;6.076;2023-05-07T01:32:12;9.93;;;5.43;;
37593;SDS011;23441;50.856;6.076;2023-05-07T01:34:39;9.07;;;5.75;;
37593;SDS011;23441;50.856;6.076;2023-05-07T01:37:05;11.82;;;6.10;;
37593;SDS011;23441;50.856;6.076;2023-05-07T01:39:31;6.68;;;5.43;;
37593;SDS011;23441;50.856;6.076;2023-05-07T01:41:58;7.55;;;5.78;;
37593;SDS011;23441;50.856;6.076;2023-05-07T01:44:24;6.53;;;4.63;;
37593;SDS011;23441;50.856;6.076;2023-05-07T01:46:51;9.15;;;5.65;;
37593;SDS011;23441;50.856;6.076;2023-05-07T01:49:17;8.93;;;5.30;;
37593;SDS011;23441;50.856;6.076;2023-05-07T01:51:43;5.65;;;4.97;;
37593;SDS011;23441;50.856;6.076;2023-05-07T01:54:09;6.65;;;5.45;;
37593;SDS011;23441;50.856;6.076;2023-05-07T01:56:35;8.63;;;5.55;;
37593;SDS011;23441;50.856;6.076;2023-05-07T01:59:01;6.90;;;5.72;;
37593;SDS011;23441;50.856;6.076;2023-05-07T02:01:27;5.90;;;5.40;;
37593;SDS011;23441;50.856;6.076;2023-05-07T02:03:52;10.95;;;6.13;;
37593;SDS011;23441;50.856;6.076;2023-05-07T02:06:19;10.13;;;5.68;;
37593;SDS011;23441;50.856;6.076;2023-05-07T02:08:44;10.10;;;6.18;;
37593;SDS011;23441;50.856;6.076;2023-05-07T02:11:11;9.73;;;6.05;;
37593;SDS011;23441;50.856;6.076;2023-05-07T02:13:36;7.78;;;6.18;;
37593;SDS011;23441;50.856;6.076;2023-05-07T02:16:02;6.75;;;6.05;;
37593;SDS011;23441;50.856;6.076;2023-05-07T02:18:28;10.32;;;6.10;;
37593;SDS011;23441;50.856;6.076;2023-05-07T02:20:54;10.38;;;5.72;;
37593;SDS011;23441;50.856;6.076;2023-05-07T02:23:20;6.93;;;5.55;;
37593;SDS011;23441;50.856;6.076;2023-05-07T02:25:46;10.07;;;5.47;;
37593;SDS011;23441;50.856;6.076;2023-05-07T02:28:11;10.73;;;5.93;;
37593;SDS011;23441;50.856;6.076;2023-05-07T02:30:37;7.95;;;5.75;;
37593;SDS011;23441;50.856;6.076;2023-05-07T02:33:03;8.77;;;6.20;;
37593;SDS011;23441;50.856;6.076;2023-05-07T02:35:29;10.32;;;6.10;;
37593;SDS011;23441;50.856;6.076;2023-05-07T02:37:55;6.25;;;4.63;;
37593;SDS011;23441;50.856;6.076;2023-05-07T02:40:20;7.65;;;5.53;;
37593;SDS011;23441;50.856;6.076;2023-05-07T02:42:46;6.75;;;5.88;;
37593;SDS011;23441;50.856;6.076;2023-05-07T02:45:12;8.25;;;5.70;;
37593;SDS011;23441;50.856;6.076;2023-05-07T02:47:38;10.50;;;5.72;;
37593;SDS011;23441;50.856;6.076;2023-05-07T02:50:03;7.82;;;6.40;;
37593;SDS011;23441;50.856;6.076;2023-05-07T02:52:29;10.55;;;6.28;;
37593;SDS011;23441;50.856;6.076;2023-05-07T02:54:55;8.10;;;5.80;;
37593;SDS011;23441;50.856;6.076;2023-05-07T02:57:20;7.30;;;6.10;;
37593;SDS011;23441;50.856;6.076;2023-05-07T02:59:46;7.40;;;6.10;;
37593;SDS011;23441;50.856;6.076;2023-05-07T03:02:12;6.10;;;5.20;;
37593;SDS011;23441;50.856;6.076;2023-05-07T03:04:38;6.75;;;5.40;;
37593;SDS011;23441;50.856;6.076;2023-05-07T03:07:04;9.77;;;6.03;;
37593;SDS011;23441;50.856;6.076;2023-05-07T03:09:30;6.93;;;5.70;;
37593;SDS011;23441;50.856;6.076;2023-05-07T03:11:56;8.15;;;6.28;;
37593;SDS011;23441;50.856;6.076;2023-05-07T03:14:21;5.68;;;5.13;;
37593;SDS011;23441;50.856;6.076;2023-05-07T03:16:48;6.68;;;5.22;;
37593;SDS011;23441;50.856;6.076;2023-05-07T03:19:14;6.68;;;5.07;;
37593;SDS011;23441;50.856;6.076;2023-05-07T03:21:40;8.85;;;5.45;;
37593;SDS011;23441;50.856;6.076;2023-05-07T03:24:05;6.63;;;4.65;;
37593;SDS011;23441;50.856;6.076;2023-05-07T03:26:31;8.35;;;5.25;;
37593;SDS011;23441;50.856;6.076;2023-05-07T03:28:56;7.13;;;5.43;;
37593;SDS011;23441;50.856;6.076;2023-05-07T03:31:22;8.13;;;5.28;;
37593;SDS011;23441;50.856;6.076;2023-05-07T03:33:52;6.30;;;5.10;;
37593;SDS011;23441;50.856;6.076;2023-05-07T03:36:22;6.75;;;5.18;;
37593;SDS011;23441;50.856;6.076;2023-05-07T03:38:48;8.85;;;5.38;;
37593;SDS011;23441;50.856;6.076;2023-05-07T03:41:14;6.82;;;5.35;;
37593;SDS011;23441;50.856;6.076;2023-05-07T03:43:40;7.05;;;5.00;;
37593;SDS011;23441;50.856;6.076;2023-05-07T03:46:06;5.95;;;4.88;;
37593;SDS011;23441;50.856;6.076;2023-05-07T03:48:32;6.53;;;4.85;;
37593;SDS011;23441;50.856;6.076;2023-05-07T03:50:57;8.52;;;4.82;;
37593;SDS011;23441;50.856;6.076;2023-05-07T03:53:24;5.65;;;4.72;;
37593;SDS011;23441;50.856;6.076;2023-05-07T03:55:49;8.50;;;4.95;;
37593;SDS011;23441;50.856;6.076;2023-05-07T03:58:15;6.15;;;5.05;;
37593;SDS011;23441;50.856;6.076;2023-05-07T04:00:41;5.85;;;5.07;;
37593;SDS011;23441;50.856;6.076;2023-05-07T04:03:06;7.90;;;4.95;;
37593;SDS011;23441;50.856;6.076;2023-05-07T04:05:32;7.68;;;4.82;;
37593;SDS011;23441;50.856;6.076;2023-05-07T04:07:58;7.78;;;4.90;;
37593;SDS011;23441;50.856;6.076;2023-05-07T04:10:24;6.05;;;5.47;;
37593;SDS011;23441;50.856;6.076;2023-05-07T04:12:50;7.55;;;5.13;;
37593;SDS011;23441;50.856;6.076;2023-05-07T04:15:16;6.47;;;5.05;;
37593;SDS011;23441;50.856;6.076;2023-05-07T04:17:41;6.75;;;5.55;;
37593;SDS011;23441;50.856;6.076;2023-05-07T04:20:14;9.50;;;6.35;;
37593;SDS011;23441;50.856;6.076;2023-05-07T04:22:40;8.18;;;6.18;;
37593;SDS011;23441;50.856;6.076;2023-05-07T04:25:06;10.95;;;5.55;;
37593;SDS011;23441;50.856;6.076;2023-05-07T04:27:34;9.90;;;5.97;;
37593;SDS011;23441;50.856;6.076;2023-05-07T04:29:59;5.95;;;5.40;;
37593;SDS011;23441;50.856;6.076;2023-05-07T04:32:25;7.68;;;6.18;;
37593;SDS011;23441;50.856;6.076;2023-05-07T04:34:51;6.10;;;5.50;;
37593;SDS011;23441;50.856;6.076;2023-05-07T04:37:17;8.63;;;6.18;;
37593;SDS011;23441;50.856;6.076;2023-05-07T04:39:42;8.05;;;5.93;;
37593;SDS011;23441;50.856;6.076;2023-05-07T04:42:08;7.32;;;6.43;;
37593;SDS011;23441;50.856;6.076;2023-05-07T04:44:35;10.02;;;7.13;;
37593;SDS011;23441;50.856;6.076;2023-05-07T04:47:02;9.40;;;6.28;;
37593;SDS011;23441;50.856;6.076;2023-05-07T04:49:27;10.00;;;6.30;;
37593;SDS011;23441;50.856;6.076;2023-05-07T04:51:53;6.90;;;6.15;;
37593;SDS011;23441;50.856;6.076;2023-05-07T04:54:19;11.35;;;6.40;;
37593;SDS011;23441;50.856;6.076;2023-05-07T04:56:44;6.88;;;5.88;;
37593;SDS011;23441;50.856;6.076;2023-05-07T04:59:10;9.77;;;6.18;;
37593;SDS011;23441;50.856;6.076;2023-05-07T05:01:36;6.93;;;6.22;;
37593;SDS011;23441;50.856;6.076;2023-05-07T05:04:01;8.10;;;5.35;;
37593;SDS011;23441;50.856;6.076;2023-05-07T05:06:27;6.25;;;5.05;;
37593;SDS011;23441;50.856;6.076;2023-05-07T05:08:53;8.32;;;5.53;;
37593;SDS011;23441;50.856;6.076;2023-05-07T05:11:18;5.90;;;4.88;;
37593;SDS011;23441;50.856;6.076;2023-05-07T05:13:44;8.10;;;5.57;;
37593;SDS011;23441;50.856;6.076;2023-05-07T05:16:09;7.53;;;5.40;;
37593;SDS011;23441;50.856;6.076;2023-05-07T05:18:35;7.70;;;5.53;;
37593;SDS011;23441;50.856;6.076;2023-05-07T05:21:01;7.53;;;5.63;;
37593;SDS011;23441;50.856;6.076;2023-05-07T05:23:26;8.23;;;5.43;;
37593;SDS011;23441;50.856;6.076;2023-05-07T05:25:56;8.90;;;5.13;;
37593;SDS011;23441;50.856;6.076;2023-05-07T05:28:25;10.02;;;4.50;;
37593;SDS011;23441;50.856;6.076;2023-05-07T05:30:50;8.75;;;5.30;;
37593;SDS011;23441;50.856;6.076;2023-05-07T05:33:16;8.02;;;5.22;;
37593;SDS011;23441;50.856;6.076;2023-05-07T05:35:41;9.02;;;5.05;;
37593;SDS011;23441;50.856;6.076;2023-05-07T05:38:07;9.05;;;5.05;;
37593;SDS011;23441;50.856;6.076;2023-05-07T05:40:33;12.05;;;5.22;;
37593;SDS011;23441;50.856;6.076;2023-05-07T05:42:59;8.93;;;4.90;;
37593;SDS011;23441;50.856;6.076;2023-05-07T05:45:25;9.13;;;5.05;;
37593;SDS011;23441;50.856;6.076;2023-05-07T05:47:50;11.13;;;5.00;;
37593;SDS011;23441;50.856;6.076;2023-05-07T05:50:16;10.40;;;4.95;;
37593;SDS011;23441;50.856;6.076;2023-05-07T05:52:42;6.60;;;4.63;;
37593;SDS011;23441;50.856;6.076;2023-05-07T05:55:08;8.45;;;5.15;;
37593;SDS011;23441;50.856;6.076;2023-05-07T05:57:33;13.52;;;5.05;;
37593;SDS011;23441;50.856;6.076;2023-05-07T06:00:00;6.10;;;4.70;;
37593;SDS011;23441;50.856;6.076;2023-05-07T06:02:26;7.22;;;4.63;;
37593;SDS011;23441;50.856;6.076;2023-05-07T06:04:52;8.43;;;4.90;;
37593;SDS011;23441;50.856;6.076;2023-05-07T06:07:18;8.93;;;5.18;;
37593;SDS011;23441;50.856;6.076;2023-05-07T06:09:43;10.20;;;5.00;;
37593;SDS011;23441;50.856;6.076;2023-05-07T06:12:09;9.82;;;5.05;;
37593;SDS011;23441;50.856;6.076;2023-05-07T06:14:34;14.02;;;7.00;;
37593;SDS011;23441;50.856;6.076;2023-05-07T06:17:00;14.52;;;7.25;;
37593;SDS011;23441;50.856;6.076;2023-05-07T06:19:26;16.33;;;7.72;;
37593;SDS011;23441;50.856;6.076;2023-05-07T06:21:53;15.60;;;7.93;;
37593;SDS011;23441;50.856;6.076;2023-05-07T06:24:18;13.18;;;7.93;;
37593;SDS011;23441;50.856;6.076;2023-05-07T06:26:44;17.77;;;8.35;;
37593;SDS011;23441;50.856;6.076;2023-05-07T06:29:10;15.70;;;8.93;;
37593;SDS011;23441;50.856;6.076;2023-05-07T06:31:36;19.00;;;8.70;;
37593;SDS011;23441;50.856;6.076;2023-05-07T06:34:01;14.75;;;8.50;;
37593;SDS011;23441;50.856;6.076;2023-05-07T06:36:27;26.20;;;9.35;;
37593;SDS011;23441;50.856;6.076;2023-05-07T06:38:53;15.18;;;7.82;;
37593;SDS011;23441;50.856;6.076;2023-05-07T06:41:19;19.90;;;8.57;;
37593;SDS011;23441;50.856;6.076;2023-05-07T06:43:45;15.77;;;8.23;;
37593;SDS011;23441;50.856;6.076;2023-05-07T06:46:11;19.63;;;8.40;;
37593;SDS011;23441;50.856;6.076;2023-05-07T06:48:36;23.92;;;9.32;;
37593;SDS011;23441;50.856;6.076;2023-05-07T06:51:02;21.08;;;8.82;;
37593;SDS011;23441;50.856;6.076;2023-05-07T06:53:28;23.38;;;9.60;;
37593;SDS011;23441;50.856;6.076;2023-05-07T06:55:55;18.52;;;9.00;;
37593;SDS011;23441;50.856;6.076;2023-05-07T06:58:21;20.23;;;9.27;;
37593;SDS011;23441;50.856;6.076;2023-05-07T07:00:47;20.88;;;9.55;;
37593;SDS011;23441;50.856;6.076;2023-05-07T07:03:13;18.92;;;9.25;;
37593;SDS011;23441;50.856;6.076;2023-05-07T07:05:40;22.15;;;9.68;;
37593;SDS011;23441;50.856;6.076;2023-05-07T07:08:06;20.90;;;9.93;;
37593;SDS011;23441;50.856;6.076;2023-05-07T07:10:32;21.10;;;9.73;;
37593;SDS011;23441;50.856;6.076;2023-05-07T07:12:58;23.50;;;10.80;;
37593;SDS011;23441;50.856;6.076;2023-05-07T07:15:23;22.85;;;9.63;;
37593;SDS011;23441;50.856;6.076;2023-05-07T07:17:50;20.88;;;10.27;;
37593;SDS011;23441;50.856;6.076;2023-05-07T07:20:16;19.80;;;9.48;;
37593;SDS011;23441;50.856;6.076;2023-05-07T07:22:41;19.52;;;10.18;;
37593;SDS011;23441;50.856;6.076;2023-05-07T07:25:07;20.73;;;8.80;;
37593;SDS011;23441;50.856;6.076;2023-05-07T07:27:33;19.13;;;9.05;;
37593;SDS011;23441;50.856;6.076;2023-05-07T07:29:59;15.60;;;8.05;;
37593;SDS011;23441;50.856;6.076;2023-05-07T07:32:24;13.68;;;7.28;;
37593;SDS011;23441;50.856;6.076;2023-05-07T07:34:50;14.43;;;7.30;;
37593;SDS011;23441;50.856;6.076;2023-05-07T07:37:16;10.98;;;6.40;;
37593;SDS011;23441;50.856;6.076;2023-05-07T07:39:42;12.07;;;6.55;;
37593;SDS011;23441;50.856;6.076;2023-05-07T07:42:07;13.52;;;6.68;;
37593;SDS011;23441;50.856;6.076;2023-05-07T07:44:33;14.88;;;6.85;;
37593;SDS011;23441;50.856;6.076;2023-05-07T07:46:59;12.23;;;6.70;;
37593;SDS011;23441;50.856;6.076;2023-05-07T07:49:24;10.63;;;6.20;;
37593;SDS011;23441;50.856;6.076;2023-05-07T07:51:50;13.82;;;5.93;;
37593;SDS011;23441;50.856;6.076;2023-05-07T07:54:16;13.60;;;7.13;;
37593;SDS011;23441;50.856;6.076;2023-05-07T07:56:41;10.30;;;5.47;;
37593;SDS011;23441;50.856;6.076;2023-05-07T07:59:07;8.65;;;5.13;;
37593;SDS011;23441;50.856;6.076;2023-05-07T08:01:33;11.27;;;5.93;;
37593;SDS011;23441;50.856;6.076;2023-05-07T08:03:58;11.80;;;5.60;;
37593;SDS011;23441;50.856;6.076;2023-05-07T08:06:24;9.00;;;5.10;;
37593;SDS011;23441;50.856;6.076;2023-05-07T08:08:53;7.15;;;4.38;;
37593;SDS011;23441;50.856;6.076;2023-05-07T08:11:18;8.00;;;4.32;;
37593;SDS011;23441;50.856;6.076;2023-05-07T08:13:45;7.07;;;3.40;;
37593;SDS011;23441;50.856;6.076;2023-05-07T08:16:11;6.25;;;3.50;;
37593;SDS011;23441;50.856;6.076;2023-05-07T08:18:37;6.05;;;3.40;;
37593;SDS011;23441;50.856;6.076;2023-05-07T08:21:02;4.68;;;3.20;;
37593;SDS011;23441;50.856;6.076;2023-05-07T08:23:28;5.35;;;2.88;;
37593;SDS011;23441;50.856;6.076;2023-05-07T08:25:54;6.63;;;3.28;;
37593;SDS011;23441;50.856;6.076;2023-05-07T08:28:19;4.97;;;2.25;;
37593;SDS011;23441;50.856;6.076;2023-05-07T08:30:46;5.88;;;2.70;;
37593;SDS011;23441;50.856;6.076;2023-05-07T08:33:12;4.55;;;2.22;;
37593;SDS011;23441;50.856;6.076;2023-05-07T08:35:38;4.50;;;2.22;;
37593;SDS011;23441;50.856;6.076;2023-05-07T08:38:03;3.63;;;2.47;;
37593;SDS011;23441;50.856;6.076;2023-05-07T08:40:29;3.50;;;2.40;;
37593;SDS011;23441;50.856;6.076;2023-05-07T08:43:01;3.15;;;2.10;;
37593;SDS011;23441;50.856;6.076;2023-05-07T08:45:28;3.05;;;2.20;;
37593;SDS011;23441;50.856;6.076;2023-05-07T08:47:58;4.63;;;2.22;;
37593;SDS011;23441;50.856;6.076;2023-05-07T08:50:24;4.38;;;2.55;;
37593;SDS011;23441;50.856;6.076;2023-05-07T08:52:50;4.05;;;2.33;;
37593;SDS011;23441;50.856;6.076;2023-05-07T08:55:16;3.53;;;2.75;;
37593;SDS011;23441;50.856;6.076;2023-05-07T08:57:42;6.15;;;2.35;;
37593;SDS011;23441;50.856;6.076;2023-05-07T09:00:08;4.57;;;2.47;;
37593;SDS011;23441;50.856;6.076;2023-05-07T09:02:35;3.58;;;2.53;;
37593;SDS011;23441;50.856;6.076;2023-05-07T09:05:01;5.05;;;2.75;;
37593;SDS011;23441;50.856;6.076;2023-05-07T09:07:27;3.78;;;2.28;;
37593;SDS011;23441;50.856;6.076;2023-05-07T09:09:53;5.25;;;2.58;;
37593;SDS011;23441;50.856;6.076;2023-05-07T09:12:21;3.45;;;2.38;;
37593;SDS011;23441;50.856;6.076;2023-05-07T09:14:46;4.18;;;1.65;;
37593;SDS011;23441;50.856;6.076;2023-05-07T09:17:12;2.95;;;1.95;;
37593;SDS011;23441;50.856;6.076;2023-05-07T09:19:38;5.40;;;1.70;;
37593;SDS011;23441;50.856;6.076;2023-05-07T09:22:05;3.95;;;1.73;;
37593;SDS011;23441;50.856;6.076;2023-05-07T09:24:33;2.53;;;1.77;;
37593;SDS011;23441;50.856;6.076;2023-05-07T09:27:01;3.80;;;1.77;;
37593;SDS011;23441;50.856;6.076;2023-05-07T09:29:27;3.25;;;2.10;;
37593;SDS011;23441;50.856;6.076;2023-05-07T09:31:55;3.47;;;1.75;;
37593;SDS011;23441;50.856;6.076;2023-05-07T09:34:21;5.30;;;1.75;;
37593;SDS011;23441;50.856;6.076;2023-05-07T09:36:47;3.30;;;2.00;;
37593;SDS011;23441;50.856;6.076;2023-05-07T09:39:13;3.05;;;1.80;;
37593;SDS011;23441;50.856;6.076;2023-05-07T09:41:45;4.82;;;1.92;;
37593;SDS011;23441;50.856;6.076;2023-05-07T09:44:12;3.40;;;1.45;;
37593;SDS011;23441;50.856;6.076;2023-05-07T09:46:41;5.00;;;1.90;;
37593;SDS011;23441;50.856;6.076;2023-05-07T09:49:09;4.35;;;2.00;;
37593;SDS011;23441;50.856;6.076;2023-05-07T09:51:51;2.60;;;2.13;;
37593;SDS011;23441;50.856;6.076;2023-05-07T09:54:18;3.90;;;2.13;;
37593;SDS011;23441;50.856;6.076;2023-05-07T09:56:50;2.55;;;1.90;;
37593;SDS011;23441;50.856;6.076;2023-05-07T09:59:17;5.85;;;2.00;;
37593;SDS011;23441;50.856;6.076;2023-05-07T10:01:43;3.20;;;1.75;;
37593;SDS011;23441;50.856;6.076;2023-05-07T10:04:10;4.35;;;1.67;;
37593;SDS011;23441;50.856;6.076;2023-05-07T10:06:36;2.80;;;1.80;;
37593;SDS011;23441;50.856;6.076;2023-05-07T10:09:02;3.97;;;2.15;;
37593;SDS011;23441;50.856;6.076;2023-05-07T10:11:32;5.82;;;2.13;;
37593;SDS011;23441;50.856;6.076;2023-05-07T10:14:02;7.63;;;2.22;;
37593;SDS011;23441;50.856;6.076;2023-05-07T10:16:33;3.88;;;1.80;;
37593;SDS011;23441;50.856;6.076;2023-05-07T10:19:04;4.43;;;1.80;;
37593;SDS011;23441;50.856;6.076;2023-05-07T10:21:32;3.33;;;1.85;;
37593;SDS011;23441;50.856;6.076;2023-05-07T10:24:04;2.30;;;1.75;;
37593;SDS011;23441;50.856;6.076;2023-05-07T10:26:39;3.53;;;2.35;;
37593;SDS011;23441;50.856;6.076;2023-05-07T10:29:12;2.70;;;2.30;;
37593;SDS011;23441;50.856;6.076;2023-05-07T10:31:57;3.25;;;1.92;;
37593;SDS011;23441;50.856;6.076;2023-05-07T10:34:45;4.00;;;2.50;;
37593;SDS011;23441;50.856;6.076;2023-05-07T10:37:13;4.25;;;2.67;;
37593;SDS011;23441;50.856;6.076;2023-05-07T10:39:40;6.18;;;2.38;;
37593;SDS011;23441;50.856;6.076;2023-05-07T10:42:09;3.53;;;2.30;;
37593;SDS011;23441;50.856;6.076;2023-05-07T10:44:36;3.83;;;2.05;;
37593;SDS011;23441;50.856;6.076;2023-05-07T10:47:06;3.55;;;2.17;;
37593;SDS011;23441;50.856;6.076;2023-05-07T10:52:18;3.38;;;2.10;;
37593;SDS011;23441;50.856;6.076;2023-05-07T10:54:46;4.70;;;2.15;;
37593;SDS011;23441;50.856;6.076;2023-05-07T10:59:56;3.75;;;2.80;;
37593;SDS011;23441;50.856;6.076;2023-05-07T11:02:22;5.70;;;2.50;;
37593;SDS011;23441;50.856;6.076;2023-05-07T11:05:32;4.80;;;3.00;;
37593;SDS011;23441;50.856;6.076;2023-05-07T11:07:53;4.55;;;2.42;;
37593;SDS011;23441;50.856;6.076;2023-05-07T11:10:23;4.95;;;2.40;;
37593;SDS011;23441;50.856;6.076;2023-05-07T11:16:17;4.57;;;2.20;;
37593;SDS011;23441;50.856;6.076;2023-05-07T11:18:47;4.25;;;2.53;;
37593;SDS011;23441;50.856;6.076;2023-05-07T11:21:20;4.90;;;2.20;;
37593;SDS011;23441;50.856;6.076;2023-05-07T11:24:01;3.42;;;2.22;;
37593;SDS011;23441;50.856;6.076;2023-05-07T11:26:28;4.40;;;2.20;;
37593;SDS011;23441;50.856;6.076;2023-05-07T11:29:15;3.10;;;2.10;;
37593;SDS011;23441;50.856;6.076;2023-05-07T11:31:49;3.70;;;2.60;;
37593;SDS011;23441;50.856;6.076;2023-05-07T11:34:22;4.28;;;2.50;;
37593;SDS011;23441;50.856;6.076;2023-05-07T11:36:50;3.83;;;3.10;;
37593;SDS011;23441;50.856;6.076;2023-05-07T11:39:23;5.55;;;3.28;;
37593;SDS011;23441;50.856;6.076;2023-05-07T11:41:58;6.57;;;3.10;;
37593;SDS011;23441;50.856;6.076;2023-05-07T11:44:24;7.40;;;3.60;;
37593;SDS011;23441;50.856;6.076;2023-05-07T11:46:50;9.23;;;4.38;;
37593;SDS011;23441;50.856;6.076;2023-05-07T11:49:16;9.43;;;4.20;;
37593;SDS011;23441;50.856;6.076;2023-05-07T11:51:42;8.20;;;4.03;;
37593;SDS011;23441;50.856;6.076;2023-05-07T11:54:08;6.43;;;3.80;;
37593;SDS011;23441;50.856;6.076;2023-05-07T11:56:36;6.22;;;3.70;;
37593;SDS011;23441;50.856;6.076;2023-05-07T11:59:02;5.93;;;3.58;;
37593;SDS011;23441;50.856;6.076;2023-05-07T12:01:27;6.55;;;3.95;;
37593;SDS011;23441;50.856;6.076;2023-05-07T12:03:53;6.00;;;4.15;;
37593;SDS011;23441;50.856;6.076;2023-05-07T12:06:19;6.75;;;4.50;;
37593;SDS011;23441;50.856;6.076;2023-05-07T12:08:45;5.95;;;4.10;;
37593;SDS011;23441;50.856;6.076;2023-05-07T12:11:15;7.05;;;4.60;;
37593;SDS011;23441;50.856;6.076;2023-05-07T12:13:46;7.43;;;5.00;;
37593;SDS011;23441;50.856;6.076;2023-05-07T12:16:12;8.60;;;4.15;;
37593;SDS011;23441;50.856;6.076;2023-05-07T12:18:38;7.05;;;4.15;;
37593;SDS011;23441;50.856;6.076;2023-05-07T12:21:05;8.60;;;4.75;;
37593;SDS011;23441;50.856;6.076;2023-05-07T12:23:31;6.32;;;4.25;;
37593;SDS011;23441;50.856;6.076;2023-05-07T12:25:59;6.55;;;4.53;;
37593;SDS011;23441;50.856;6.076;2023-05-07T12:28:24;7.22;;;4.97;;
37593;SDS011;23441;50.856;6.076;2023-05-07T12:30:50;9.98;;;5.43;;
37593;SDS011;23441;50.856;6.076;2023-05-07T12:33:17;7.80;;;5.07;;
37593;SDS011;23441;50.856;6.076;2023-05-07T12:35:46;9.43;;;5.50;;
37593;SDS011;23441;50.856;6.076;2023-05-07T12:38:13;7.35;;;4.68;;
37593;SDS011;23441;50.856;6.076;2023-05-07T12:43:24;6.70;;;4.68;;
37593;SDS011;23441;50.856;6.076;2023-05-07T12:45:51;7.28;;;4.72;;
37593;SDS011;23441;50.856;6.076;2023-05-07T12:48:19;7.05;;;4.75;;
37593;SDS011;23441;50.856;6.076;2023-05-07T12:50:45;7.20;;;4.95;;
37593;SDS011;23441;50.856;6.076;2023-05-07T12:53:14;6.43;;;4.60;;
37593;SDS011;23441;50.856;6.076;2023-05-07T12:55:46;6.28;;;4.43;;
37593;SDS011;23441;50.856;6.076;2023-05-07T12:58:16;6.70;;;4.32;;
37593;SDS011;23441;50.856;6.076;2023-05-07T13:00:43;7.03;;;4.15;;
37593;SDS011;23441;50.856;6.076;2023-05-07T13:03:10;5.93;;;3.97;;
37593;SDS011;23441;50.856;6.076;2023-05-07T13:05:36;10.48;;;4.03;;
37593;SDS011;23441;50.856;6.076;2023-05-07T13:08:02;5.80;;;3.90;;
37593;SDS011;23441;50.856;6.076;2023-05-07T13:10:28;5.43;;;3.83;;
37593;SDS011;23441;50.856;6.076;2023-05-07T13:12:54;5.38;;;3.50;;
37593;SDS011;23441;50.856;6.076;2023-05-07T13:15:19;4.70;;;3.35;;
37593;SDS011;23441;50.856;6.076;2023-05-07T13:17:46;4.65;;;2.85;;
37593;SDS011;23441;50.856;6.076;2023-05-07T13:20:12;4.45;;;3.03;;
37593;SDS011;23441;50.856;6.076;2023-05-07T13:22:38;5.07;;;2.88;;
37593;SDS011;23441;50.856;6.076;2023-05-07T13:25:05;5.50;;;3.20;;
37593;SDS011;23441;50.856;6.076;2023-05-07T13:27:31;4.53;;;2.80;;
37593;SDS011;23441;50.856;6.076;2023-05-07T13:29:57;5.00;;;3.65;;
37593;SDS011;23441;50.856;6.076;2023-05-07T13:32:22;5.47;;;3.15;;
37593;SDS011;23441;50.856;6.076;2023-05-07T13:34:48;4.80;;;3.25;;
37593;SDS011;23441;50.856;6.076;2023-05-07T13:37:14;4.78;;;3.33;;
37593;SDS011;23441;50.856;6.076;2023-05-07T13:39:40;4.65;;;3.28;;
37593;SDS011;23441;50.856;6.076;2023-05-07T13:42:06;4.53;;;3.42;;
37593;SDS011;23441;50.856;6.076;2023-05-07T13:44:32;7.70;;;3.10;;
37593;SDS011;23441;50.856;6.076;2023-05-07T13:46:58;4.10;;;2.95;;
37593;SDS011;23441;50.856;6.076;2023-05-07T13:49:24;4.78;;;3.20;;
37593;SDS011;23441;50.856;6.076;2023-05-07T13:51:49;5.35;;;2.97;;
37593;SDS011;23441;50.856;6.076;2023-05-07T13:54:15;4.75;;;2.97;;
37593;SDS011;23441;50.856;6.076;2023-05-07T13:56:41;4.30;;;3.13;;
37593;SDS011;23441;50.856;6.076;2023-05-07T13:59:06;4.85;;;3.55;;
37593;SDS011;23441;50.856;6.076;2023-05-07T14:01:32;4.97;;;3.28;;
37593;SDS011;23441;50.856;6.076;2023-05-07T14:03:58;3.78;;;3.13;;
37593;SDS011;23441;50.856;6.076;2023-05-07T14:06:24;4.85;;;3.10;;
37593;SDS011;23441;50.856;6.076;2023-05-07T14:08:50;6.13;;;3.33;;
37593;SDS011;23441;50.856;6.076;2023-05-07T14:11:16;5.35;;;3.30;;
37593;SDS011;23441;50.856;6.076;2023-05-07T14:13:41;4.95;;;3.67;;
37593;SDS011;23441;50.856;6.076;2023-05-07T14:16:07;6.70;;;3.70;;
37593;SDS011;23441;50.856;6.076;2023-05-07T14:18:33;6.15;;;3.45;;
37593;SDS011;23441;50.856;6.076;2023-05-07T14:20:59;5.20;;;3.97;;
37593;SDS011;23441;50.856;6.076;2023-05-07T14:23:25;4.93;;;2.92;;
37593;SDS011;23441;50.856;6.076;2023-05-07T14:25:51;6.80;;;3.85;;
37593;SDS011;23441;50.856;6.076;2023-05-07T14:28:18;6.57;;;3.78;;
37593;SDS011;23441;50.856;6.076;2023-05-07T14:30:43;3.78;;;3.28;;
37593;SDS011;23441;50.856;6.076;2023-05-07T14:33:09;6.13;;;3.80;;
37593;SDS011;23441;50.856;6.076;2023-05-07T14:35:35;5.22;;;3.67;;
37593;SDS011;23441;50.856;6.076;2023-05-07T14:38:01;7.38;;;3.92;;
37593;SDS011;23441;50.856;6.076;2023-05-07T14:40:26;6.10;;;3.78;;
37593;SDS011;23441;50.856;6.076;2023-05-07T14:42:52;6.90;;;3.40;;
37593;SDS011;23441;50.856;6.076;2023-05-07T14:45:17;6.25;;;3.80;;
37593;SDS011;23441;50.856;6.076;2023-05-07T14:47:45;6.30;;;3.85;;
37593;SDS011;23441;50.856;6.076;2023-05-07T14:50:12;7.13;;;3.72;;
37593;SDS011;23441;50.856;6.076;2023-05-07T14:52:38;4.85;;;3.40;;
37593;SDS011;23441;50.856;6.076;2023-05-07T14:55:04;4.47;;;3.25;;